createdAt,value
2023-01-19T00:00:42.242Z,78.68
2023-01-19T00:01:47.391Z,78.66
2023-01-19T00:03:02.097Z,78.78
2023-01-19T00:04:24.589Z,78.51
2023-01-19T00:05:46.299Z,78.71
2023-01-19T00:07:08.853Z,78.69
2023-01-19T00:08:30.416Z,78.63
2023-01-19T00:09:52.906Z,78.66
2023-01-19T00:11:17.348Z,78.70
2023-01-19T00:12:40.012Z,79.20
2023-01-19T00:14:01.530Z,78.90
2023-01-19T00:15:23.973Z,78.89
2023-01-19T00:16:47.819Z,78.95
2023-01-19T00:18:11.204Z,79.02
2023-01-19T00:19:33.901Z,78.74
2023-01-19T00:20:56.407Z,78.91
2023-01-19T00:22:18.895Z,78.83
2023-01-19T00:23:42.343Z,79.19
2023-01-19T00:25:05.192Z,79.13
2023-01-19T00:26:27.679Z,78.92
2023-01-19T00:27:50.210Z,78.89
2023-01-19T00:29:13.628Z,78.72
2023-01-19T00:30:35.142Z,78.93
2023-01-19T00:31:58.982Z,78.84
2023-01-19T00:33:20.524Z,78.92
2023-01-19T00:34:49.432Z,78.93
2023-01-19T00:36:12.210Z,78.99
2023-01-19T00:37:33.790Z,79.19
2023-01-19T00:38:56.348Z,79.12
2023-01-19T00:40:18.278Z,79.06
2023-01-19T00:41:58.404Z,79.07
2023-01-19T00:43:20.861Z,79.13
2023-01-19T00:44:42.630Z,79.20
2023-01-19T00:46:05.181Z,79.24
2023-01-19T00:47:28.066Z,79.48
2023-01-19T00:48:50.542Z,79.17
2023-01-19T00:50:14.137Z,79.34
2023-01-19T00:51:36.753Z,78.95
2023-01-19T00:53:01.033Z,79.05
2023-01-19T00:54:23.831Z,79.22
2023-01-19T00:55:45.414Z,79.21
2023-01-19T00:57:07.922Z,79.29
2023-01-19T00:58:30.433Z,79.39
2023-01-19T00:59:51.929Z,79.32
2023-01-19T01:01:14.774Z,78.95
2023-01-19T01:02:38.152Z,79.30
2023-01-19T01:04:00.720Z,79.23
2023-01-19T01:05:23.254Z,79.57
2023-01-19T01:06:44.921Z,79.35
2023-01-19T01:08:07.465Z,79.38
2023-01-19T01:09:29.404Z,79.49
2023-01-19T01:10:52.408Z,79.15
2023-01-19T01:12:13.924Z,79.71
2023-01-19T01:13:36.510Z,79.72
2023-01-19T01:14:58.047Z,79.54
2023-01-19T01:16:20.560Z,79.58
2023-01-19T01:17:47.531Z,79.96
2023-01-19T01:19:10.021Z,79.63
2023-01-19T01:20:34.679Z,79.72
2023-01-19T01:21:57.183Z,79.53
2023-01-19T01:23:22.566Z,79.88
2023-01-19T01:24:45.139Z,79.92
2023-01-19T01:26:06.747Z,79.53
2023-01-19T01:27:29.257Z,79.58
2023-01-19T01:28:51.730Z,79.76
2023-01-19T01:30:14.422Z,79.85
2023-01-19T01:31:36.992Z,79.75
2023-01-19T01:33:01.250Z,79.47
2023-01-19T01:34:23.940Z,79.60
2023-01-19T01:35:45.483Z,79.64
2023-01-19T01:37:08.805Z,79.91
2023-01-19T01:38:30.389Z,79.71
2023-01-19T01:39:52.897Z,79.51
2023-01-19T01:41:15.554Z,79.66
2023-01-19T01:42:40.511Z,79.80
2023-01-19T01:44:06.217Z,79.26
2023-01-19T01:45:31.940Z,79.48
2023-01-19T01:46:54.529Z,79.46
2023-01-19T01:48:25.439Z,79.42
2023-01-19T01:49:48.036Z,79.48
2023-01-19T01:51:25.924Z,79.39
2023-01-19T01:53:07.620Z,79.67
2023-01-19T01:54:32.132Z,79.61
2023-01-19T01:55:53.660Z,79.38
2023-01-19T01:57:16.265Z,79.58
2023-01-19T01:58:38.700Z,79.49
2023-01-19T02:00:01.371Z,79.55
2023-01-19T02:01:41.451Z,79.47
2023-01-19T02:03:03.626Z,79.37
2023-01-19T02:04:27.795Z,79.40
2023-01-19T02:05:51.048Z,79.22
2023-01-19T02:07:35.588Z,79.44
2023-01-19T02:09:21.626Z,79.14
2023-01-19T02:11:03.008Z,79.27
2023-01-19T02:12:43.477Z,79.21
2023-01-19T02:14:07.431Z,79.55
2023-01-19T02:15:29.908Z,79.28
2023-01-19T02:16:53.019Z,79.59
2023-01-19T02:18:15.121Z,79.33
2023-01-19T02:19:43.546Z,79.45
2023-01-19T02:21:11.453Z,79.47
2023-01-19T02:22:41.516Z,79.32
2023-01-19T02:24:07.425Z,79.65
2023-01-19T02:25:29.417Z,79.44
2023-01-19T02:26:52.957Z,79.29
2023-01-19T02:28:15.139Z,79.34
2023-01-19T02:29:37.764Z,79.77
2023-01-19T02:31:00.297Z,79.68
2023-01-19T02:32:21.873Z,79.67
2023-01-19T02:33:45.062Z,79.39
2023-01-19T02:35:07.240Z,79.92
2023-01-19T02:36:33.474Z,79.89
2023-01-19T02:37:55.141Z,79.81
2023-01-19T02:39:21.253Z,79.78
2023-01-19T02:40:45.716Z,79.72
2023-01-19T02:42:11.501Z,79.73
2023-01-19T02:43:35.659Z,79.73
2023-01-19T02:44:57.410Z,79.75
2023-01-19T02:46:20.019Z,79.75
2023-01-19T02:47:44.738Z,79.55
2023-01-19T02:49:07.297Z,79.97
2023-01-19T02:50:45.849Z,79.99
2023-01-19T02:52:16.067Z,80.08
2023-01-19T02:53:56.904Z,79.91
2023-01-19T02:55:28.796Z,79.70
2023-01-19T02:57:11.579Z,79.92
2023-01-19T02:58:37.800Z,79.83
2023-01-19T03:00:15.572Z,79.89
2023-01-19T03:01:51.139Z,79.63
2023-01-19T03:03:29.366Z,80.13
2023-01-19T03:05:06.916Z,80.00
2023-01-19T03:06:38.120Z,79.95
2023-01-19T03:08:09.435Z,80.06
2023-01-19T03:09:41.392Z,80.18
2023-01-19T03:11:07.369Z,79.83
2023-01-19T03:12:36.704Z,79.94
2023-01-19T03:14:04.753Z,79.76
2023-01-19T03:15:33.603Z,80.00
2023-01-19T03:17:58.339Z,80.10
2023-01-19T03:19:24.557Z,79.87
2023-01-19T03:20:48.466Z,79.52
2023-01-19T03:22:15.702Z,80.00
2023-01-19T03:23:42.033Z,80.18
2023-01-19T03:25:04.438Z,80.34
2023-01-19T03:26:31.619Z,79.90
2023-01-19T03:27:57.152Z,80.25
2023-01-19T03:29:25.493Z,80.14
2023-01-19T03:30:55.535Z,79.96
2023-01-19T03:32:22.250Z,80.22
2023-01-19T03:33:48.847Z,79.83
2023-01-19T03:35:13.542Z,79.81
2023-01-19T03:36:41.479Z,80.19
2023-01-19T03:38:10.594Z,80.28
2023-01-19T03:39:32.541Z,80.04
2023-01-19T03:40:59.772Z,79.80
2023-01-19T03:42:26.285Z,80.11
2023-01-19T03:43:51.334Z,80.00
2023-01-19T03:45:15.398Z,79.82
2023-01-19T03:46:38.232Z,79.86
2023-01-19T03:48:01.138Z,79.89
2023-01-19T03:49:28.108Z,79.56
2023-01-19T03:50:52.405Z,79.83
2023-01-19T03:52:14.232Z,79.90
2023-01-19T03:53:36.998Z,79.64
2023-01-19T03:54:59.013Z,79.86
2023-01-19T03:56:23.442Z,79.62
2023-01-19T03:57:47.274Z,79.95
2023-01-19T03:59:08.817Z,79.58
2023-01-19T04:00:31.803Z,79.43
2023-01-19T04:01:53.564Z,79.51
2023-01-19T04:03:17.879Z,79.51
2023-01-19T04:04:41.131Z,79.53
2023-01-19T04:06:02.838Z,79.58
2023-01-19T04:07:25.306Z,79.53
2023-01-19T04:08:49.681Z,79.57
2023-01-19T04:10:12.720Z,79.58
2023-01-19T04:11:35.320Z,79.54
2023-01-19T04:13:00.032Z,79.94
2023-01-19T04:14:22.848Z,79.50
2023-01-19T04:15:44.421Z,79.83
2023-01-19T04:17:06.972Z,79.69
2023-01-19T04:18:29.634Z,79.81
2023-01-19T04:19:53.127Z,79.59
2023-01-19T04:21:14.675Z,79.66
2023-01-19T04:22:39.030Z,79.74
2023-01-19T04:24:01.003Z,79.68
2023-01-19T04:25:23.482Z,80.00
2023-01-19T04:26:45.983Z,79.75
2023-01-19T04:28:09.812Z,79.82
2023-01-19T04:29:32.313Z,79.80
2023-01-19T04:30:54.558Z,79.80
2023-01-19T04:32:17.208Z,79.79
2023-01-19T04:33:38.744Z,79.78
2023-01-19T04:35:01.225Z,80.05
2023-01-19T04:36:23.759Z,80.02
2023-01-19T04:37:45.599Z,79.93
2023-01-19T04:39:08.879Z,80.05
2023-01-19T04:40:32.248Z,80.11
2023-01-19T04:41:53.847Z,80.13
2023-01-19T04:43:18.115Z,80.23
2023-01-19T04:44:40.620Z,80.04
2023-01-19T04:46:03.081Z,80.27
2023-01-19T04:47:24.715Z,80.25
2023-01-19T04:48:47.218Z,79.90
2023-01-19T04:50:10.883Z,80.13
2023-01-19T04:51:32.382Z,80.12
2023-01-19T04:52:54.852Z,80.15
2023-01-19T04:54:16.512Z,80.02
2023-01-19T04:55:39.357Z,80.29
2023-01-19T04:57:00.852Z,80.14
2023-01-19T04:58:24.633Z,80.37
2023-01-19T04:59:47.101Z,80.21
2023-01-19T05:01:10.080Z,80.22
2023-01-19T05:02:33.603Z,80.18
2023-01-19T05:04:00.040Z,80.30
2023-01-19T05:05:24.566Z,80.15
2023-01-19T05:06:46.217Z,80.33
2023-01-19T05:08:08.816Z,80.79
2023-01-19T05:09:31.310Z,80.50
2023-01-19T05:10:53.802Z,80.53
2023-01-19T05:12:15.699Z,80.68
2023-01-19T05:13:39.521Z,80.79
2023-01-19T05:15:01.730Z,81.12
2023-01-19T05:16:24.325Z,80.75
2023-01-19T05:17:46.820Z,80.81
2023-01-19T05:19:08.330Z,80.77
2023-01-19T05:20:30.923Z,80.99
2023-01-19T05:21:54.410Z,80.91
2023-01-19T05:23:16.892Z,80.90
2023-01-19T05:24:39.425Z,80.88
2023-01-19T05:26:03.147Z,81.18
2023-01-19T05:27:25.672Z,81.40
2023-01-19T05:28:50.210Z,80.96
2023-01-19T05:30:13.194Z,81.33
2023-01-19T05:31:36.016Z,80.93
2023-01-19T05:32:59.032Z,81.39
2023-01-19T05:34:21.737Z,81.16
2023-01-19T05:35:43.265Z,81.37
2023-01-19T05:37:05.901Z,81.53
2023-01-19T05:38:35.167Z,81.74
2023-01-19T05:39:58.237Z,81.48
2023-01-19T05:41:20.761Z,81.81
2023-01-19T05:42:43.229Z,81.71
2023-01-19T05:44:07.139Z,81.61
2023-01-19T05:45:29.627Z,81.80
2023-01-19T05:46:52.204Z,81.70
2023-01-19T05:48:14.914Z,82.27
2023-01-19T05:49:37.427Z,81.82
2023-01-19T05:50:59.266Z,82.34
2023-01-19T05:52:22.254Z,82.17
2023-01-19T05:53:44.780Z,82.20
2023-01-19T05:55:07.481Z,82.40
2023-01-19T05:56:30.132Z,82.60
2023-01-19T05:57:52.688Z,82.66
2023-01-19T05:59:21.395Z,82.65
2023-01-19T06:00:44.132Z,82.68
2023-01-19T06:02:07.129Z,82.73
2023-01-19T06:03:29.772Z,82.38
2023-01-19T06:04:52.278Z,83.11
2023-01-19T06:06:15.272Z,83.13
2023-01-19T06:07:37.752Z,82.93
2023-01-19T06:09:00.271Z,82.99
2023-01-19T06:10:22.754Z,83.20
2023-01-19T06:11:45.858Z,83.48
2023-01-19T06:13:09.633Z,83.18
2023-01-19T06:14:33.560Z,83.38
2023-01-19T06:15:59.806Z,83.23
2023-01-19T06:17:22.452Z,83.35
2023-01-19T06:18:44.995Z,83.28
2023-01-19T06:20:07.349Z,83.59
2023-01-19T06:21:29.925Z,83.46
2023-01-19T06:22:52.488Z,83.63
2023-01-19T06:24:14.961Z,83.60
2023-01-19T06:25:37.437Z,83.70
2023-01-19T06:27:01.037Z,83.86
2023-01-19T06:28:23.796Z,84.13
2023-01-19T06:29:47.647Z,83.96
2023-01-19T06:31:10.356Z,84.15
2023-01-19T06:32:32.368Z,83.91
2023-01-19T06:33:54.980Z,84.03
2023-01-19T06:35:18.243Z,84.35
2023-01-19T06:36:40.875Z,84.44
2023-01-19T06:38:02.378Z,84.24
2023-01-19T06:39:25.275Z,84.29
2023-01-19T06:40:53.132Z,84.37
2023-01-19T06:42:15.660Z,84.58
2023-01-19T06:43:38.175Z,84.76
2023-01-19T06:45:02.041Z,84.60
2023-01-19T06:46:24.721Z,84.74
2023-01-19T06:47:48.385Z,84.49
2023-01-19T06:49:10.897Z,84.96
2023-01-19T06:50:33.507Z,84.72
2023-01-19T06:51:56.108Z,84.44
2023-01-19T06:53:20.665Z,84.39
2023-01-19T06:54:45.410Z,84.94
2023-01-19T06:56:09.277Z,85.32
2023-01-19T06:57:31.919Z,84.92
2023-01-19T06:58:55.157Z,85.22
2023-01-19T07:00:19.956Z,85.18
2023-01-19T07:01:42.574Z,85.20
2023-01-19T07:03:07.424Z,85.31
2023-01-19T07:04:29.957Z,85.05
2023-01-19T07:05:53.013Z,85.15
2023-01-19T07:07:17.515Z,85.63
2023-01-19T07:08:40.793Z,85.25
2023-01-19T07:10:03.322Z,85.51
2023-01-19T07:11:32.626Z,85.66
2023-01-19T07:12:58.415Z,85.43
2023-01-19T07:14:21.476Z,85.87
2023-01-19T07:15:45.339Z,85.60
2023-01-19T07:17:08.628Z,86.03
2023-01-19T07:18:31.734Z,85.49
2023-01-19T07:19:54.227Z,85.82
2023-01-19T07:21:19.009Z,86.11
2023-01-19T07:22:41.213Z,85.84
2023-01-19T07:24:04.122Z,85.96
2023-01-19T07:25:27.606Z,86.34
2023-01-19T07:26:50.093Z,86.32
2023-01-19T07:28:15.542Z,86.16
2023-01-19T07:29:38.342Z,86.16
2023-01-19T07:31:02.678Z,86.46
2023-01-19T07:32:25.361Z,85.91
2023-01-19T07:33:48.320Z,86.37
2023-01-19T07:35:11.104Z,86.07
2023-01-19T07:36:33.641Z,86.34
2023-01-19T07:37:56.329Z,86.13
2023-01-19T07:39:18.907Z,86.26
2023-01-19T07:40:41.440Z,86.41
2023-01-19T07:42:04.329Z,86.33
2023-01-19T07:43:26.962Z,86.23
2023-01-19T07:44:49.932Z,86.86
2023-01-19T07:46:12.535Z,86.56
2023-01-19T07:47:16.982Z,86.63
2023-01-19T07:48:19.506Z,86.87
2023-01-19T07:49:22.044Z,86.59
2023-01-19T07:50:27.534Z,86.66
2023-01-19T07:51:29.144Z,86.62
2023-01-19T07:52:31.654Z,86.26
2023-01-19T07:53:33.333Z,86.35
2023-01-19T07:54:35.865Z,86.22
2023-01-19T07:55:37.821Z,86.17
2023-01-19T07:56:40.443Z,86.27
2023-01-19T07:57:43.024Z,86.56
2023-01-19T07:58:46.553Z,86.45
2023-01-19T07:59:48.144Z,86.83
2023-01-19T08:00:51.054Z,86.52
2023-01-19T08:01:54.252Z,86.53
2023-01-19T08:03:01.371Z,86.62
2023-01-19T08:04:04.171Z,86.68
2023-01-19T08:05:07.490Z,86.61
2023-01-19T08:06:20.476Z,86.74
2023-01-19T08:07:22.186Z,86.66
2023-01-19T08:08:35.445Z,86.64
2023-01-19T08:09:37.492Z,86.90
2023-01-19T08:10:40.065Z,86.94
2023-01-19T08:11:41.704Z,86.75
2023-01-19T08:12:44.669Z,86.71
2023-01-19T08:13:46.276Z,86.76
2023-01-19T08:14:48.757Z,86.61
2023-01-19T08:15:51.257Z,86.75
2023-01-19T08:16:55.267Z,86.43
2023-01-19T08:18:00.657Z,86.75
2023-01-19T08:19:03.827Z,86.82
2023-01-19T08:20:07.892Z,86.76
2023-01-19T08:21:10.535Z,86.96
2023-01-19T08:22:13.119Z,86.87
2023-01-19T08:23:14.679Z,86.78
2023-01-19T08:24:21.149Z,86.59
2023-01-19T08:25:24.356Z,86.69
2023-01-19T08:26:29.200Z,86.65
2023-01-19T08:27:32.400Z,86.88
2023-01-19T08:28:35.049Z,87.08
2023-01-19T08:29:37.997Z,86.87
2023-01-19T08:30:43.395Z,86.70
2023-01-19T08:31:46.588Z,86.97
2023-01-19T08:32:49.566Z,87.00
2023-01-19T08:33:52.111Z,87.03
2023-01-19T08:34:54.588Z,87.07
2023-01-19T08:35:57.238Z,87.01
2023-01-19T08:37:00.320Z,86.84
2023-01-19T08:38:01.867Z,86.81
2023-01-19T08:39:05.092Z,87.09
2023-01-19T08:40:08.420Z,87.11
2023-01-19T08:41:10.995Z,86.88
2023-01-19T08:42:13.495Z,86.87
2023-01-19T08:43:17.275Z,86.93
2023-01-19T08:44:19.855Z,86.77
2023-01-19T08:45:21.506Z,87.03
2023-01-19T08:46:24.100Z,86.75
2023-01-19T08:47:26.860Z,86.86
2023-01-19T08:48:30.384Z,86.95
2023-01-19T08:49:32.873Z,86.92
2023-01-19T08:50:35.812Z,87.10
2023-01-19T08:51:39.039Z,86.98
2023-01-19T08:52:40.582Z,87.08
2023-01-19T08:53:44.015Z,87.06
2023-01-19T08:54:45.572Z,86.92
2023-01-19T08:55:48.147Z,87.04
2023-01-19T08:56:50.646Z,86.88
2023-01-19T08:57:52.774Z,86.93
2023-01-19T08:59:08.228Z,86.91
2023-01-19T09:00:13.313Z,86.70
2023-01-19T09:01:18.563Z,86.93
2023-01-19T09:02:20.473Z,86.69
2023-01-19T09:03:23.531Z,86.89
2023-01-19T09:04:30.754Z,86.79
2023-01-19T09:05:41.993Z,86.97
2023-01-19T09:06:44.607Z,86.89
2023-01-19T09:07:48.229Z,86.99
2023-01-19T09:08:50.820Z,87.00
2023-01-19T09:09:52.442Z,86.89
2023-01-19T09:10:54.983Z,86.68
2023-01-19T09:11:57.649Z,86.45
2023-01-19T09:12:59.175Z,86.79
2023-01-19T09:14:01.965Z,86.80
2023-01-19T09:15:03.889Z,86.89
2023-01-19T09:16:07.772Z,87.01
2023-01-19T09:17:09.328Z,87.14
2023-01-19T09:18:13.623Z,86.92
2023-01-19T09:19:16.229Z,86.93
2023-01-19T09:20:19.375Z,86.84
2023-01-19T09:21:21.885Z,86.92
2023-01-19T09:22:23.382Z,86.93
2023-01-19T09:23:26.316Z,86.79
2023-01-19T09:24:28.843Z,86.74
2023-01-19T09:25:30.418Z,86.77
2023-01-19T09:26:33.328Z,86.87
2023-01-19T09:27:35.981Z,86.90
2023-01-19T09:28:38.003Z,86.95
2023-01-19T09:29:40.816Z,86.64
2023-01-19T09:30:45.446Z,86.66
2023-01-19T09:31:48.787Z,86.78
2023-01-19T09:32:50.342Z,86.75
2023-01-19T09:33:53.540Z,86.90
2023-01-19T09:34:56.424Z,86.80
2023-01-19T09:36:10.612Z,87.01
2023-01-19T09:37:12.806Z,86.72
2023-01-19T09:38:16.692Z,86.83
2023-01-19T09:39:18.321Z,86.93
2023-01-19T09:40:24.406Z,86.87
2023-01-19T09:41:27.537Z,86.72
2023-01-19T09:42:36.745Z,86.86
2023-01-19T09:43:41.303Z,86.88
2023-01-19T09:44:46.059Z,86.74
2023-01-19T09:45:52.132Z,86.53
2023-01-19T09:46:54.732Z,86.84
2023-01-19T09:47:59.408Z,86.88
2023-01-19T09:49:04.916Z,87.04
2023-01-19T09:50:19.555Z,86.86
2023-01-19T09:51:25.807Z,86.94
2023-01-19T09:52:27.804Z,86.68
2023-01-19T09:53:41.725Z,86.68
2023-01-19T09:54:52.732Z,86.76
2023-01-19T09:55:54.375Z,86.77
2023-01-19T09:56:56.939Z,86.74
2023-01-19T09:57:58.834Z,86.83
2023-01-19T09:59:02.516Z,86.67
2023-01-19T10:00:14.956Z,86.71
2023-01-19T10:01:38.221Z,86.83
2023-01-19T10:02:45.077Z,86.83
2023-01-19T10:03:52.395Z,86.79
2023-01-19T10:05:00.750Z,86.80
2023-01-19T10:06:07.169Z,86.67
2023-01-19T10:07:33.419Z,86.73
2023-01-19T10:08:41.930Z,86.65
2023-01-19T10:10:03.832Z,86.72
2023-01-19T10:11:20.279Z,86.58
2023-01-19T10:12:33.166Z,86.59
2023-01-19T10:13:43.390Z,86.62
2023-01-19T10:14:50.971Z,86.48
2023-01-19T10:16:02.062Z,86.59
2023-01-19T10:17:18.114Z,86.86
2023-01-19T10:18:25.208Z,86.78
2023-01-19T10:19:30.827Z,86.75
2023-01-19T10:20:38.066Z,86.75
2023-01-19T10:21:43.448Z,86.86
2023-01-19T10:22:51.409Z,86.91
2023-01-19T10:24:08.566Z,86.73
2023-01-19T10:25:15.991Z,86.65
2023-01-19T10:26:22.911Z,86.70
2023-01-19T10:27:29.676Z,86.79
2023-01-19T10:28:32.075Z,86.51
2023-01-19T10:29:37.509Z,86.62
2023-01-19T10:30:42.761Z,86.50
2023-01-19T10:31:47.189Z,86.57
2023-01-19T10:32:50.300Z,86.92
2023-01-19T10:33:54.103Z,86.73
2023-01-19T10:34:58.305Z,86.63
2023-01-19T10:36:03.006Z,86.58
2023-01-19T10:37:14.177Z,86.53
2023-01-19T10:38:21.997Z,86.49
2023-01-19T10:39:24.788Z,86.45
2023-01-19T10:40:34.078Z,86.61
2023-01-19T10:41:42.731Z,86.67
2023-01-19T10:42:44.285Z,86.66
2023-01-19T10:43:47.978Z,86.70
2023-01-19T10:44:52.544Z,86.57
2023-01-19T10:45:54.096Z,86.35
2023-01-19T10:46:58.255Z,86.29
2023-01-19T10:48:05.915Z,86.54
2023-01-19T10:49:24.071Z,86.64
2023-01-19T10:50:29.574Z,86.63
2023-01-19T10:51:32.215Z,86.32
2023-01-19T10:52:36.635Z,86.16
2023-01-19T10:53:43.752Z,86.17
2023-01-19T10:54:48.512Z,86.23
2023-01-19T10:56:12.242Z,85.98
2023-01-19T10:57:26.521Z,86.27
2023-01-19T10:58:32.024Z,85.95
2023-01-19T10:59:37.481Z,86.09
2023-01-19T11:00:44.159Z,85.98
2023-01-19T11:02:04.888Z,86.18
2023-01-19T11:03:24.060Z,86.08
2023-01-19T11:04:28.840Z,85.80
2023-01-19T11:05:33.568Z,85.69
2023-01-19T11:06:36.085Z,85.78
2023-01-19T11:07:48.600Z,85.60
2023-01-19T11:08:53.082Z,85.20
2023-01-19T11:10:21.031Z,85.19
2023-01-19T11:11:25.582Z,85.29
2023-01-19T11:12:28.139Z,85.17
2023-01-19T11:13:30.496Z,85.51
2023-01-19T11:14:33.401Z,85.37
2023-01-19T11:15:42.128Z,85.44
2023-01-19T11:16:48.400Z,85.45
2023-01-19T11:17:52.661Z,85.38
2023-01-19T11:18:56.511Z,85.72
2023-01-19T11:20:01.380Z,85.58
2023-01-19T11:21:07.508Z,85.07
2023-01-19T11:22:21.551Z,85.34
2023-01-19T11:23:27.120Z,85.21
2023-01-19T11:24:31.211Z,85.11
2023-01-19T11:25:35.477Z,85.17
2023-01-19T11:26:42.903Z,85.15
2023-01-19T11:27:51.444Z,85.33
2023-01-19T11:28:56.028Z,85.14
2023-01-19T11:30:09.562Z,84.96
2023-01-19T11:31:32.921Z,84.98
2023-01-19T11:32:36.950Z,84.94
2023-01-19T11:33:42.851Z,84.84
2023-01-19T11:34:45.541Z,84.95
2023-01-19T11:35:47.231Z,84.90
2023-01-19T11:36:57.420Z,85.01
2023-01-19T11:38:07.638Z,84.77
2023-01-19T11:39:28.081Z,84.82
2023-01-19T11:40:31.631Z,84.99
2023-01-19T11:41:36.443Z,84.78
2023-01-19T11:42:40.966Z,84.92
2023-01-19T11:43:49.008Z,84.95
2023-01-19T11:44:59.784Z,85.05
2023-01-19T11:46:03.652Z,84.82
2023-01-19T11:47:14.494Z,84.72
2023-01-19T11:48:25.960Z,84.77
2023-01-19T11:49:41.457Z,84.64
2023-01-19T11:50:44.732Z,84.44
2023-01-19T11:51:53.399Z,84.42
2023-01-19T11:53:02.616Z,84.60
2023-01-19T11:54:16.476Z,84.52
2023-01-19T11:55:33.821Z,84.16
2023-01-19T11:56:38.826Z,84.10
2023-01-19T11:57:46.699Z,84.38
2023-01-19T11:58:49.319Z,84.02
2023-01-19T11:59:51.870Z,83.88
2023-01-19T12:00:59.844Z,84.13
2023-01-19T12:02:19.106Z,84.19
2023-01-19T12:03:30.475Z,83.98
2023-01-19T12:04:37.642Z,84.03
2023-01-19T12:05:43.997Z,83.92
2023-01-19T12:06:53.940Z,84.13
2023-01-19T12:07:59.278Z,83.90
2023-01-19T12:09:07.400Z,83.93
2023-01-19T12:10:22.273Z,83.98
2023-01-19T12:11:31.693Z,84.08
2023-01-19T12:12:40.517Z,84.05
2023-01-19T12:13:44.143Z,83.95
2023-01-19T12:14:55.767Z,83.91
2023-01-19T12:16:05.214Z,83.84
2023-01-19T12:17:13.688Z,83.66
2023-01-19T12:18:22.849Z,83.73
2023-01-19T12:19:31.174Z,83.88
2023-01-19T12:20:38.710Z,83.77
2023-01-19T12:21:42.508Z,84.01
2023-01-19T12:22:50.722Z,83.63
2023-01-19T12:24:04.898Z,83.84
2023-01-19T12:25:19.508Z,83.81
2023-01-19T12:26:36.544Z,83.57
2023-01-19T12:27:43.284Z,83.52
2023-01-19T12:28:49.439Z,83.44
2023-01-19T12:29:55.130Z,83.75
2023-01-19T12:30:59.052Z,83.45
2023-01-19T12:32:19.790Z,83.47
2023-01-19T12:33:22.996Z,83.24
2023-01-19T12:34:32.315Z,83.44
2023-01-19T12:35:58.067Z,83.11
2023-01-19T12:37:04.582Z,83.42
2023-01-19T12:38:34.714Z,83.02
2023-01-19T12:39:49.578Z,83.12
2023-01-19T12:41:17.296Z,82.96
2023-01-19T12:42:21.351Z,82.71
2023-01-19T12:43:25.485Z,82.61
2023-01-19T12:44:34.478Z,82.82
2023-01-19T12:45:39.668Z,82.47
2023-01-19T12:46:42.881Z,82.71
2023-01-19T12:47:52.996Z,82.52
2023-01-19T12:48:55.925Z,82.47
2023-01-19T12:50:06.752Z,82.24
2023-01-19T12:51:10.110Z,82.20
2023-01-19T12:52:34.213Z,82.14
2023-01-19T12:53:38.585Z,82.32
2023-01-19T12:54:43.859Z,82.33
2023-01-19T12:55:47.478Z,82.32
2023-01-19T12:56:49.615Z,82.56
2023-01-19T12:58:00.498Z,82.43
2023-01-19T12:59:05.628Z,82.14
2023-01-19T13:00:30.116Z,82.17
2023-01-19T13:01:43.896Z,81.93
2023-01-19T13:02:47.345Z,82.04
2023-01-19T13:04:27.873Z,82.09
2023-01-19T13:05:53.578Z,81.99
2023-01-19T13:07:18.034Z,82.02
2023-01-19T13:08:26.818Z,82.00
2023-01-19T13:09:30.718Z,81.86
2023-01-19T13:11:19.543Z,82.01
2023-01-19T13:12:26.490Z,82.12
2023-01-19T13:13:29.694Z,81.78
2023-01-19T13:14:38.695Z,81.75
2023-01-19T13:15:40.365Z,81.94
2023-01-19T13:16:58.855Z,81.81
2023-01-19T13:18:02.441Z,81.98
2023-01-19T13:19:17.347Z,82.18
2023-01-19T13:20:27.073Z,82.00
2023-01-19T13:21:31.054Z,81.99
2023-01-19T13:23:14.371Z,82.08
2023-01-19T13:24:20.801Z,81.76
2023-01-19T13:25:29.727Z,81.62
2023-01-19T13:26:34.995Z,81.77
2023-01-19T13:27:38.117Z,81.61
2023-01-19T13:28:43.401Z,81.75
2023-01-19T13:29:46.394Z,81.73
2023-01-19T13:31:00.284Z,81.56
2023-01-19T13:32:05.864Z,81.73
2023-01-19T13:33:17.648Z,81.73
2023-01-19T13:34:23.704Z,81.89
2023-01-19T13:35:25.488Z,81.40
2023-01-19T13:36:31.417Z,81.30
2023-01-19T13:37:37.198Z,81.74
2023-01-19T13:38:43.010Z,81.49
2023-01-19T13:39:46.391Z,81.36
2023-01-19T13:40:49.380Z,81.58
2023-01-19T13:41:55.292Z,81.11
2023-01-19T13:42:57.494Z,81.18
2023-01-19T13:44:03.847Z,81.23
2023-01-19T13:45:21.409Z,81.05
2023-01-19T13:46:26.218Z,81.11
2023-01-19T13:47:37.837Z,81.10
2023-01-19T13:48:41.081Z,81.08
2023-01-19T13:49:48.467Z,81.02
2023-01-19T13:50:59.635Z,80.99
2023-01-19T13:52:13.626Z,81.08
2023-01-19T13:53:18.840Z,80.86
2023-01-19T13:54:21.388Z,81.17
2023-01-19T13:55:24.954Z,80.83
2023-01-19T13:56:28.794Z,81.08
2023-01-19T13:57:32.655Z,81.04
2023-01-19T13:58:35.356Z,80.55
2023-01-19T13:59:37.885Z,80.74
2023-01-19T14:00:46.934Z,80.64
2023-01-19T14:01:51.119Z,80.65
2023-01-19T14:02:57.121Z,80.64
2023-01-19T14:04:00.351Z,80.78
2023-01-19T14:05:15.124Z,80.62
2023-01-19T14:06:24.174Z,80.79
2023-01-19T14:07:27.069Z,80.56
2023-01-19T14:08:31.119Z,80.77
2023-01-19T14:09:32.810Z,80.45
2023-01-19T14:10:36.899Z,80.50
2023-01-19T14:11:38.520Z,80.60
2023-01-19T14:12:54.467Z,80.77
2023-01-19T14:14:00.917Z,80.31
2023-01-19T14:15:05.187Z,80.58
2023-01-19T14:16:15.975Z,80.76
2023-01-19T14:17:22.890Z,80.27
2023-01-19T14:18:30.046Z,80.41
2023-01-19T14:19:51.006Z,80.17
2023-01-19T14:20:56.407Z,80.64
2023-01-19T14:22:01.230Z,80.44
2023-01-19T14:23:04.107Z,80.14
2023-01-19T14:24:19.134Z,80.13
2023-01-19T14:25:28.911Z,80.61
2023-01-19T14:26:46.657Z,80.55
2023-01-19T14:27:49.557Z,80.27
2023-01-19T14:28:52.267Z,80.51
2023-01-19T14:29:54.915Z,80.60
2023-01-19T14:31:00.637Z,80.33
2023-01-19T14:32:16.363Z,80.46
2023-01-19T14:33:33.909Z,80.31
2023-01-19T14:34:38.723Z,80.30
2023-01-19T14:35:41.463Z,80.09
2023-01-19T14:36:43.129Z,80.22
2023-01-19T14:37:48.332Z,80.47
2023-01-19T14:38:51.120Z,79.97
2023-01-19T14:39:58.617Z,80.03
2023-01-19T14:41:00.268Z,80.28
2023-01-19T14:42:07.578Z,80.29
2023-01-19T14:43:13.138Z,79.83
2023-01-19T14:44:19.895Z,80.14
2023-01-19T14:45:24.765Z,79.95
2023-01-19T14:46:26.572Z,79.97
2023-01-19T14:47:36.150Z,80.05
2023-01-19T14:48:37.685Z,79.60
2023-01-19T14:49:42.753Z,79.87
2023-01-19T14:51:01.895Z,79.84
2023-01-19T14:52:09.106Z,79.67
2023-01-19T14:53:17.978Z,79.96
2023-01-19T14:54:29.111Z,79.72
2023-01-19T14:55:37.229Z,79.93
2023-01-19T14:56:41.098Z,79.69
2023-01-19T14:57:43.591Z,79.86
2023-01-19T14:58:45.154Z,80.07
2023-01-19T14:59:49.530Z,80.04
2023-01-19T15:00:55.538Z,79.84
2023-01-19T15:01:57.321Z,79.75
2023-01-19T15:03:01.209Z,79.75
2023-01-19T15:04:03.460Z,79.82
2023-01-19T15:05:08.704Z,79.69
2023-01-19T15:06:14.515Z,79.78
2023-01-19T15:07:20.018Z,79.67
2023-01-19T15:08:28.739Z,79.70
2023-01-19T15:09:31.420Z,79.51
2023-01-19T15:10:35.038Z,79.38
2023-01-19T15:11:37.623Z,79.34
2023-01-19T15:12:40.836Z,79.44
2023-01-19T15:13:44.364Z,79.64
2023-01-19T15:14:47.075Z,79.47
2023-01-19T15:15:49.909Z,79.44
2023-01-19T15:16:52.534Z,79.64
2023-01-19T15:17:56.332Z,79.57
2023-01-19T15:18:59.879Z,79.51
2023-01-19T15:20:02.548Z,79.40
2023-01-19T15:21:04.339Z,79.43
2023-01-19T15:22:12.411Z,79.62
2023-01-19T15:23:14.927Z,79.25
2023-01-19T15:24:18.113Z,79.41
2023-01-19T15:25:25.636Z,79.32
2023-01-19T15:26:38.032Z,79.20
2023-01-19T15:27:40.617Z,79.29
2023-01-19T15:28:43.537Z,79.33
2023-01-19T15:29:46.183Z,79.34
2023-01-19T15:30:47.904Z,79.51
2023-01-19T15:31:50.857Z,79.19
2023-01-19T15:32:53.385Z,79.39
2023-01-19T15:33:56.182Z,79.37
2023-01-19T15:34:59.075Z,79.70
2023-01-19T15:36:01.619Z,79.40
2023-01-19T15:37:10.136Z,79.47
2023-01-19T15:38:11.712Z,79.37
2023-01-19T15:39:14.250Z,79.56
2023-01-19T15:40:19.009Z,79.42
2023-01-19T15:41:23.739Z,79.58
2023-01-19T15:42:26.318Z,79.50
2023-01-19T15:43:27.856Z,79.62
2023-01-19T15:44:30.996Z,79.52
2023-01-19T15:45:36.740Z,79.61
2023-01-19T15:46:39.686Z,79.67
2023-01-19T15:47:41.236Z,79.78
2023-01-19T15:48:43.801Z,79.72
2023-01-19T15:49:46.380Z,79.62
2023-01-19T15:50:50.608Z,79.69
2023-01-19T15:51:52.359Z,79.63
2023-01-19T15:52:54.992Z,79.57
2023-01-19T15:53:57.509Z,79.77
2023-01-19T15:54:59.077Z,79.82
2023-01-19T15:56:01.820Z,80.03